チェンナイ国際空港の過去48時間の天気

チェンナイ国際空港 (Madras / Minambakkam)

現在時刻: 5/26 07:55 IST (5/26 02:25 UTC) 以下の時間は現地時間です。

過去48時間のMETAR気象情報
時間 風向 風速(m/s) 視程 気温(℃) 湿度(%) 気圧(hPa) 天気現象
26 07:30 西南西 6 4000m 30 84 1008 もや
26 07:00 西南西 5 4000m 29 84 1008 もや
26 06:30 西南西 5 4000m 29 84 1007 もや
26 06:00 西南西 5 4000m 29 84 1007 もや
26 05:30 西南西 4 5000m 29 79 1006 もや
26 05:00 西南西 4 5000m 29 79 1006 もや
26 04:30 西南西 4 5000m 29 79 1006 もや
26 04:00 西南西 4 5000m 29 79 1005 もや
26 03:30 西南西 4 5000m 30 79 1005 もや
26 03:00 西南西 4 5000m 30 84 1005 もや
26 02:30 西南西 4 5000m 30 89 1005 もや
26 02:00 西南西 4 5000m 30 89 1005 もや
26 01:30 西南西 4 5000m 30 94 1006 もや
26 01:00 西南西 4 5000m 30 94 1006 もや
26 00:30 南西 5 5000m 30 89 1007 もや
26 00:00 南西 4 5000m 30 89 1007 もや
25 23:30 南西 5 5000m 30 89 1007 もや
25 23:00 南西 4 5000m 31 84 1007 もや
25 22:30 南南西 4 5000m 31 79 1007 もや
25 22:00 南南西 4 4000m 31 75 1007 もや
25 21:30 南南西 3 4000m 31 70 1007 煙霧
25 21:00 南南西 2 4000m 31 70 1007 煙霧
25 20:30 南南西 3 4000m 31 70 1006 煙霧
25 20:00 南南西 3 4000m 32 63 1006 煙霧
25 19:30 3 4000m 32 67 1005 煙霧
25 19:00 南南西 2 4000m 33 67 1005 煙霧
25 18:30 南南西 2 4000m 33 67 1004 煙霧
25 18:00 南西 2 4000m 33 67 1004 煙霧
25 17:30 南南西 2 4000m 34 63 1004 煙霧
25 17:00 南南西 3 4000m 33 63 1004 煙霧
25 16:30 不定 1 4000m 32 67 1004 煙霧
25 16:00 西 3 4000m 31 66 1004 雷 煙霧
25 15:30 北東 2 4000m 32 63 1004 雷 煙霧
25 15:00 7 4000m 32 67 1004 弱い雷雨
25 14:30 南東 6 6000m 35 63 1004
25 14:00 東南東 6 6000m 36 60 1004
25 13:30 西北西 2 7000m 38 57 1005
25 13:00 2 7000m 37 57 1005
25 12:30 北北西 3 6000m 38 54 1006
25 12:00 北北東 2 6000m 38 54 1006
25 11:30 北北東 3 6000m 37 57 1007
25 11:00 北北西 4 6000m 36 60 1007
25 10:30 西北西 4 6000m 36 60 1008
25 10:00 西北西 4 6000m 35 67 1008
25 09:30 西 4 6000m 34 67 1008
25 09:00 西 4 6000m 33 71 1008
25 08:30 西 3 6000m 32 75 1008
25 08:00 西 3 4000m 31 79 1008 もや
25 07:30 南西 4 4000m 31 79 1008 もや
25 07:00 南西 4 4000m 30 84 1007 もや
25 06:30 南西 3 4000m 30 84 1007 もや
25 06:00 南西 3 4000m 30 84 1006 もや
25 05:30 西 4 5000m 30 84 1006 もや
25 05:00 南西 3 6000m 30 84 1005
25 04:30 南西 3 6000m 30 84 1005
25 04:00 南西 3 6000m 30 84 1004
25 03:30 南西 3 6000m 31 79 1004
25 03:00 南西 4 6000m 30 84 1004
25 02:30 南西 4 6000m 31 79 1005
25 02:00 南西 4 6000m 31 84 1005
25 01:30 南西 4 6000m 31 84 1005
VOMM 260200Z 24012KT 4000 BR FEW020 30/27 Q1008 BECMG 5000 BR
VOMM 260130Z 24010KT 4000 BR FEW020 29/26 Q1008 NOSIG
VOMM 260100Z 24009KT 4000 BR FEW020 29/26 Q1007 NOSIG
VOMM 260030Z 24009KT 4000 BR FEW020 29/26 Q1007 NOSIG
VOMM 260000Z 24008KT 5000 BR FEW020 29/25 Q1006 TEMPO 3000 BR
VOMM 252330Z 25008KT 5000 BR FEW020 29/25 Q1006 NOSIG
VOMM 252300Z 25008KT 5000 BR FEW020 29/25 Q1006 NOSIG
VOMM 252230Z 24007KT 5000 BR FEW020 29/25 Q1005 NOSIG
VOMM 252200Z 24007KT 5000 BR FEW020 30/26 Q1005 NOSIG
VOMM 252130Z 24008KT 5000 BR FEW020 30/27 Q1005 NOSIG
VOMM 252100Z 24008KT 5000 BR FEW020 30/28 Q1005 NOSIG
VOMM 252030Z 24008KT 5000 BR FEW020 30/28 Q1005 NOSIG
VOMM 252000Z 24008KT 5000 BR FEW020 30/29 Q1006 NOSIG
VOMM 251930Z 24008KT 5000 BR FEW020 30/29 Q1006 NOSIG
VOMM 251900Z 22009KT 5000 BR FEW020 30/28 Q1007 NOSIG
VOMM 251830Z 22008KT 5000 BR FEW020 30/28 Q1007 NOSIG
VOMM 251800Z 23009KT 5000 BR FEW020 30/28 Q1007 NOSIG
VOMM 251730Z 22008KT 5000 BR FEW020 31/28 Q1007 NOSIG
VOMM 251700Z 21008KT 5000 BR FEW020 31/27 Q1007 NOSIG
VOMM 251630Z 21007KT 4000 BR FEW020 31/26 Q1007 BECMG 5000 BR
VOMM 251600Z 20005KT 4000 HZ FEW020 31/25 Q1007 NOSIG
VOMM 251530Z 20004KT 4000 HZ FEW020 31/25 Q1007 NOSIG
VOMM 251500Z 21006KT 4000 HZ FEW020 31/25 Q1006 NOSIG
VOMM 251430Z 20006KT 4000 HZ FEW020 32/24 Q1006 NOSIG
VOMM 251400Z 19006KT 4000 HZ FEW020 32/25 Q1005 NOSIG
VOMM 251330Z 20003KT 4000 HZ FEW020 SCT100 33/26 Q1005 NOSIG
VOMM 251300Z 20004KT 4000 HZ FEW020 SCT100 33/26 Q1004 NOSIG
VOMM 251230Z 22003KT 4000 HZ FEW020 FEW025TCU SCT100 33/26 Q1004 NOSIG
VOMM 251200Z 20004KT 4000 HZ FEW020 FEW025TCU SCT100 34/26 Q1004 NOSIG
VOMM 251130Z 21005KT 4000 HZ FEW020 FEW025CB SCT100 33/25 Q1004 NOSIG
VOMM 251100Z VRB02KT 4000 HZ FEW020 FEW025CB SCT100 32/25 Q1004 NOSIG
VOMM 251030Z 27006KT 4000 TS HZ FEW020 FEW025CB SCT100 31/24 Q1004 NOSIG
VOMM 251000Z 04004KT 4000 TS HZ SCT018 FEW025CB BKN080 32/24 Q1004 NOSIG
VOMM 250930Z 36014KT 4000 -TSRA SCT018 FEW025CB BKN080 32/25 Q1004 TEMPO 3000 -TSRA
VOMM 250900Z 13011KT 6000 SCT020 FEW025CB BKN100 35/27 Q1004 TEMPO 5000 -DZ
VOMM 250830Z 12012KT 6000 SCT020 FEW025CB SCT100 36/27 Q1004 NOSIG
VOMM 250800Z 30004KT 7000 SCT020 FEW025TCU 38/28 Q1005 NOSIG
VOMM 250730Z 36004KT 7000 SCT020 37/27 Q1005 NOSIG
VOMM 250700Z 34006KT 6000 FEW020 38/27 Q1006 NOSIG
VOMM 250630Z 03003KT 6000 FEW020 38/27 Q1006 NOSIG
VOMM 250600Z 02005KT 6000 FEW020 37/27 Q1007 NOSIG
VOMM 250530Z 33007KT 6000 FEW020 36/27 Q1007 NOSIG
VOMM 250500Z 30008KT 6000 FEW020 36/27 Q1008 NOSIG
VOMM 250430Z 30007KT 6000 FEW020 35/28 Q1008 NOSIG
VOMM 250400Z 27008KT 6000 FEW020 34/27 Q1008 NOSIG
VOMM 250330Z 27008KT 6000 FEW020 33/27 Q1008 NOSIG
VOMM 250300Z 26006KT 6000 FEW020 32/27 Q1008 NOSIG
VOMM 250230Z 26006KT 4000 BR FEW020 31/27 Q1008 BECMG 5000 HZ
VOMM 250200Z 22007KT 4000 BR FEW020 31/27 Q1008 NOSIG
VOMM 250130Z 22007KT 4000 BR FEW020 30/27 Q1007 NOSIG
VOMM 250100Z 23006KT 4000 BR SCT020 FEW025TCU 30/27 Q1007 NOSIG
VOMM 250030Z 23006KT 4000 BR SCT020 FEW025TCU 30/27 Q1006 NOSIG
VOMM 250000Z 26007KT 5000 BR SCT020 FEW025TCU 30/27 Q1006 TEMPO 3000 BR
VOMM 242330Z 23006KT 6000 SCT020 FEW025TCU 30/27 Q1005 TEMPO 5000 BR
VOMM 242300Z 22006KT 6000 SCT020 FEW025TCU 30/27 Q1005 NOSIG
VOMM 242230Z 22006KT 6000 FEW020 FEW025TCU 30/27 Q1004 NOSIG
VOMM 242200Z 22006KT 6000 FEW020 FEW025TCU 31/27 Q1004 NOSIG
VOMM 242130Z 22008KT 6000 FEW020 FEW025TCU 30/27 Q1004 NOSIG
VOMM 242100Z 22008KT 6000 FEW020 FEW025TCU 31/27 Q1005 NOSIG
VOMM 242030Z 22008KT 6000 FEW020 FEW025TCU 31/28 Q1005 NOSIG
VOMM 242000Z 22008KT 6000 SCT020 FEW025TCU 31/28 Q1005 NOSIG